sensor_id;sensor_type;location;lat;lon;timestamp;P1;durP1;ratioP1;P2;durP2;ratioP2
84144;SDS011;74264;48.988;12.040;2024-02-14T00:00:09;12.70;;;6.57;;
84144;SDS011;74264;48.988;12.040;2024-02-14T00:02:43;9.27;;;5.53;;
84144;SDS011;74264;48.988;12.040;2024-02-14T00:05:09;10.38;;;6.22;;
84144;SDS011;74264;48.988;12.040;2024-02-14T00:07:36;11.52;;;7.43;;
84144;SDS011;74264;48.988;12.040;2024-02-14T00:10:05;11.02;;;6.65;;
84144;SDS011;74264;48.988;12.040;2024-02-14T00:12:35;9.27;;;6.15;;
84144;SDS011;74264;48.988;12.040;2024-02-14T00:15:05;10.48;;;5.70;;
84144;SDS011;74264;48.988;12.040;2024-02-14T00:17:32;6.43;;;4.65;;
84144;SDS011;74264;48.988;12.040;2024-02-14T00:20:02;11.55;;;5.82;;
84144;SDS011;74264;48.988;12.040;2024-02-14T00:22:33;8.88;;;5.97;;
84144;SDS011;74264;48.988;12.040;2024-02-14T00:24:58;11.73;;;6.57;;
84144;SDS011;74264;48.988;12.040;2024-02-14T00:27:24;7.90;;;5.78;;
84144;SDS011;74264;48.988;12.040;2024-02-14T00:29:51;65.13;;;11.02;;
84144;SDS011;74264;48.988;12.040;2024-02-14T00:32:19;325.63;;;21.77;;
84144;SDS011;74264;48.988;12.040;2024-02-14T00:34:51;410.00;;;29.52;;
84144;SDS011;74264;48.988;12.040;2024-02-14T00:37:18;345.80;;;25.83;;
84144;SDS011;74264;48.988;12.040;2024-02-14T00:39:45;452.83;;;30.50;;
84144;SDS011;74264;48.988;12.040;2024-02-14T00:42:10;271.95;;;22.05;;
84144;SDS011;74264;48.988;12.040;2024-02-14T00:44:36;462.40;;;25.83;;
84144;SDS011;74264;48.988;12.040;2024-02-14T00:47:02;373.25;;;25.63;;
84144;SDS011;74264;48.988;12.040;2024-02-14T00:49:28;96.70;;;13.50;;
84144;SDS011;74264;48.988;12.040;2024-02-14T00:51:54;449.13;;;25.48;;
84144;SDS011;74264;48.988;12.040;2024-02-14T00:54:20;750.42;;;44.65;;
84144;SDS011;74264;48.988;12.040;2024-02-14T00:56:46;568.03;;;33.53;;
84144;SDS011;74264;48.988;12.040;2024-02-14T00:59:11;673.45;;;42.75;;
84144;SDS011;74264;48.988;12.040;2024-02-14T01:01:38;126.85;;;15.13;;
84144;SDS011;74264;48.988;12.040;2024-02-14T01:04:04;130.40;;;17.13;;
84144;SDS011;74264;48.988;12.040;2024-02-14T01:06:30;77.90;;;10.05;;
84144;SDS011;74264;48.988;12.040;2024-02-14T01:08:55;284.33;;;25.60;;
84144;SDS011;74264;48.988;12.040;2024-02-14T01:11:21;20.95;;;7.95;;
84144;SDS011;74264;48.988;12.040;2024-02-14T01:13:47;16.52;;;8.55;;
84144;SDS011;74264;48.988;12.040;2024-02-14T01:16:12;62.75;;;15.50;;
84144;SDS011;74264;48.988;12.040;2024-02-14T01:18:39;62.05;;;10.80;;
84144;SDS011;74264;48.988;12.040;2024-02-14T01:21:05;153.35;;;11.80;;
84144;SDS011;74264;48.988;12.040;2024-02-14T01:23:32;154.30;;;12.05;;
84144;SDS011;74264;48.988;12.040;2024-02-14T01:25:58;398.23;;;32.85;;
84144;SDS011;74264;48.988;12.040;2024-02-14T01:28:23;379.50;;;27.02;;
84144;SDS011;74264;48.988;12.040;2024-02-14T01:30:49;384.80;;;29.10;;
84144;SDS011;74264;48.988;12.040;2024-02-14T01:33:16;391.02;;;31.27;;
84144;SDS011;74264;48.988;12.040;2024-02-14T01:35:42;349.95;;;26.83;;
84144;SDS011;74264;48.988;12.040;2024-02-14T01:38:08;258.85;;;19.98;;
84144;SDS011;74264;48.988;12.040;2024-02-14T01:40:33;131.18;;;14.55;;
84144;SDS011;74264;48.988;12.040;2024-02-14T01:43:03;149.25;;;17.33;;
84144;SDS011;74264;48.988;12.040;2024-02-14T01:45:28;276.27;;;22.52;;
84144;SDS011;74264;48.988;12.040;2024-02-14T01:47:59;389.02;;;34.60;;
84144;SDS011;74264;48.988;12.040;2024-02-14T01:50:26;167.02;;;16.83;;
84144;SDS011;74264;48.988;12.040;2024-02-14T01:52:55;104.13;;;13.38;;
84144;SDS011;74264;48.988;12.040;2024-02-14T01:55:24;71.63;;;12.13;;
84144;SDS011;74264;48.988;12.040;2024-02-14T01:57:54;78.30;;;10.85;;
84144;SDS011;74264;48.988;12.040;2024-02-14T02:00:20;109.07;;;12.73;;
84144;SDS011;74264;48.988;12.040;2024-02-14T02:02:45;10.75;;;6.35;;
84144;SDS011;74264;48.988;12.040;2024-02-14T02:05:16;27.65;;;8.05;;
84144;SDS011;74264;48.988;12.040;2024-02-14T02:07:42;27.33;;;7.57;;
84144;SDS011;74264;48.988;12.040;2024-02-14T02:10:09;41.35;;;8.02;;
84144;SDS011;74264;48.988;12.040;2024-02-14T02:12:45;13.50;;;6.85;;
84144;SDS011;74264;48.988;12.040;2024-02-14T02:15:30;15.15;;;8.20;;
84144;SDS011;74264;48.988;12.040;2024-02-14T02:18:16;22.35;;;8.50;;
84144;SDS011;74264;48.988;12.040;2024-02-14T02:21:02;23.70;;;6.78;;
84144;SDS011;74264;48.988;12.040;2024-02-14T02:23:35;14.30;;;6.72;;
84144;SDS011;74264;48.988;12.040;2024-02-14T02:26:01;11.90;;;6.03;;
84144;SDS011;74264;48.988;12.040;2024-02-14T02:28:47;10.10;;;6.43;;
84144;SDS011;74264;48.988;12.040;2024-02-14T02:31:12;10.25;;;6.75;;
84144;SDS011;74264;48.988;12.040;2024-02-14T02:33:40;10.10;;;6.18;;
84144;SDS011;74264;48.988;12.040;2024-02-14T02:36:09;15.13;;;6.45;;
84144;SDS011;74264;48.988;12.040;2024-02-14T02:38:54;7.43;;;5.22;;
84144;SDS011;74264;48.988;12.040;2024-02-14T02:41:41;10.18;;;5.80;;
84144;SDS011;74264;48.988;12.040;2024-02-14T02:44:25;9.85;;;5.55;;
84144;SDS011;74264;48.988;12.040;2024-02-14T02:47:10;12.20;;;5.60;;
84144;SDS011;74264;48.988;12.040;2024-02-14T02:49:56;22.05;;;5.95;;
84144;SDS011;74264;48.988;12.040;2024-02-14T02:52:44;20.13;;;7.35;;
84144;SDS011;74264;48.988;12.040;2024-02-14T02:55:16;29.98;;;8.57;;
84144;SDS011;74264;48.988;12.040;2024-02-14T02:57:46;52.58;;;11.20;;
84144;SDS011;74264;48.988;12.040;2024-02-14T03:00:12;17.25;;;8.50;;
84144;SDS011;74264;48.988;12.040;2024-02-14T03:02:46;39.28;;;14.20;;
84144;SDS011;74264;48.988;12.040;2024-02-14T03:05:15;58.40;;;14.25;;
84144;SDS011;74264;48.988;12.040;2024-02-14T03:08:05;50.45;;;12.23;;
84144;SDS011;74264;48.988;12.040;2024-02-14T03:10:52;39.67;;;14.40;;
84144;SDS011;74264;48.988;12.040;2024-02-14T03:13:38;35.75;;;10.38;;
84144;SDS011;74264;48.988;12.040;2024-02-14T03:16:26;46.47;;;8.68;;
84144;SDS011;74264;48.988;12.040;2024-02-14T03:18:52;24.00;;;8.23;;
84144;SDS011;74264;48.988;12.040;2024-02-14T03:21:18;14.18;;;7.93;;
84144;SDS011;74264;48.988;12.040;2024-02-14T03:23:44;14.55;;;7.68;;
84144;SDS011;74264;48.988;12.040;2024-02-14T03:26:11;18.13;;;8.82;;
84144;SDS011;74264;48.988;12.040;2024-02-14T03:28:36;10.15;;;6.93;;
84144;SDS011;74264;48.988;12.040;2024-02-14T03:31:02;14.98;;;7.35;;
84144;SDS011;74264;48.988;12.040;2024-02-14T03:33:29;16.98;;;7.95;;
84144;SDS011;74264;48.988;12.040;2024-02-14T03:35:55;23.05;;;8.40;;
84144;SDS011;74264;48.988;12.040;2024-02-14T03:38:27;27.95;;;8.23;;
84144;SDS011;74264;48.988;12.040;2024-02-14T03:40:53;13.40;;;7.18;;
84144;SDS011;74264;48.988;12.040;2024-02-14T03:43:19;14.05;;;6.53;;
84144;SDS011;74264;48.988;12.040;2024-02-14T03:45:45;11.05;;;5.50;;
84144;SDS011;74264;48.988;12.040;2024-02-14T03:48:11;12.07;;;6.22;;
84144;SDS011;74264;48.988;12.040;2024-02-14T03:50:38;21.98;;;7.32;;
84144;SDS011;74264;48.988;12.040;2024-02-14T03:53:04;8.13;;;6.00;;
84144;SDS011;74264;48.988;12.040;2024-02-14T03:55:29;11.60;;;6.55;;
84144;SDS011;74264;48.988;12.040;2024-02-14T03:57:55;26.67;;;7.32;;
84144;SDS011;74264;48.988;12.040;2024-02-14T04:00:21;104.65;;;9.65;;
84144;SDS011;74264;48.988;12.040;2024-02-14T04:02:47;168.85;;;11.88;;
84144;SDS011;74264;48.988;12.040;2024-02-14T04:05:14;86.75;;;8.57;;
84144;SDS011;74264;48.988;12.040;2024-02-14T04:07:40;230.43;;;16.63;;
84144;SDS011;74264;48.988;12.040;2024-02-14T04:10:06;229.80;;;16.77;;
84144;SDS011;74264;48.988;12.040;2024-02-14T04:12:33;311.35;;;17.42;;
84144;SDS011;74264;48.988;12.040;2024-02-14T04:14:59;250.13;;;16.95;;
84144;SDS011;74264;48.988;12.040;2024-02-14T04:17:24;228.70;;;12.55;;
84144;SDS011;74264;48.988;12.040;2024-02-14T04:19:50;196.13;;;17.58;;
84144;SDS011;74264;48.988;12.040;2024-02-14T04:22:15;56.80;;;8.35;;
84144;SDS011;74264;48.988;12.040;2024-02-14T04:24:41;270.25;;;21.52;;
84144;SDS011;74264;48.988;12.040;2024-02-14T04:27:07;188.60;;;18.00;;
84144;SDS011;74264;48.988;12.040;2024-02-14T04:29:32;82.00;;;11.32;;
84144;SDS011;74264;48.988;12.040;2024-02-14T04:31:59;101.50;;;11.68;;
84144;SDS011;74264;48.988;12.040;2024-02-14T04:34:25;159.80;;;13.52;;
84144;SDS011;74264;48.988;12.040;2024-02-14T04:36:51;124.00;;;11.52;;
84144;SDS011;74264;48.988;12.040;2024-02-14T04:39:17;51.72;;;9.45;;
84144;SDS011;74264;48.988;12.040;2024-02-14T04:41:42;37.13;;;8.30;;
84144;SDS011;74264;48.988;12.040;2024-02-14T04:44:08;42.58;;;10.80;;
84144;SDS011;74264;48.988;12.040;2024-02-14T04:46:34;62.20;;;8.85;;
84144;SDS011;74264;48.988;12.040;2024-02-14T04:49:01;33.78;;;8.93;;
84144;SDS011;74264;48.988;12.040;2024-02-14T04:51:31;18.83;;;8.50;;
84144;SDS011;74264;48.988;12.040;2024-02-14T04:53:57;64.57;;;10.95;;
84144;SDS011;74264;48.988;12.040;2024-02-14T04:56:26;32.45;;;11.80;;
84144;SDS011;74264;48.988;12.040;2024-02-14T04:58:55;33.67;;;11.55;;
84144;SDS011;74264;48.988;12.040;2024-02-14T05:01:21;41.70;;;12.05;;
84144;SDS011;74264;48.988;12.040;2024-02-14T05:03:47;13.98;;;8.35;;
84144;SDS011;74264;48.988;12.040;2024-02-14T05:06:14;71.30;;;8.63;;
84144;SDS011;74264;48.988;12.040;2024-02-14T05:08:39;76.13;;;10.30;;
84144;SDS011;74264;48.988;12.040;2024-02-14T05:11:05;86.25;;;11.40;;
84144;SDS011;74264;48.988;12.040;2024-02-14T05:13:30;167.82;;;11.80;;
84144;SDS011;74264;48.988;12.040;2024-02-14T05:15:56;315.90;;;17.25;;
84144;SDS011;74264;48.988;12.040;2024-02-14T05:18:22;135.00;;;12.85;;
84144;SDS011;74264;48.988;12.040;2024-02-14T05:20:48;39.30;;;9.68;;
84144;SDS011;74264;48.988;12.040;2024-02-14T05:23:14;28.13;;;7.90;;
84144;SDS011;74264;48.988;12.040;2024-02-14T05:25:43;24.75;;;8.77;;
84144;SDS011;74264;48.988;12.040;2024-02-14T05:28:09;12.43;;;7.75;;
84144;SDS011;74264;48.988;12.040;2024-02-14T05:30:39;17.17;;;8.82;;
84144;SDS011;74264;48.988;12.040;2024-02-14T05:33:15;17.95;;;11.35;;
84144;SDS011;74264;48.988;12.040;2024-02-14T05:35:40;24.58;;;10.77;;
84144;SDS011;74264;48.988;12.040;2024-02-14T05:38:06;57.45;;;12.88;;
84144;SDS011;74264;48.988;12.040;2024-02-14T05:40:33;151.70;;;15.85;;
84144;SDS011;74264;48.988;12.040;2024-02-14T05:42:59;253.10;;;16.50;;
84144;SDS011;74264;48.988;12.040;2024-02-14T05:45:24;465.90;;;25.55;;
84144;SDS011;74264;48.988;12.040;2024-02-14T05:47:50;432.05;;;25.88;;
84144;SDS011;74264;48.988;12.040;2024-02-14T05:50:15;302.13;;;19.75;;
84144;SDS011;74264;48.988;12.040;2024-02-14T05:52:41;315.08;;;20.90;;
84144;SDS011;74264;48.988;12.040;2024-02-14T05:55:07;151.13;;;13.20;;
84144;SDS011;74264;48.988;12.040;2024-02-14T05:57:47;440.85;;;27.58;;
84144;SDS011;74264;48.988;12.040;2024-02-14T06:00:14;264.35;;;21.35;;
84144;SDS011;74264;48.988;12.040;2024-02-14T06:02:39;26.42;;;10.98;;
84144;SDS011;74264;48.988;12.040;2024-02-14T06:05:06;24.25;;;12.95;;
84144;SDS011;74264;48.988;12.040;2024-02-14T06:07:36;31.55;;;12.27;;
84144;SDS011;74264;48.988;12.040;2024-02-14T06:10:02;38.70;;;12.80;;
84144;SDS011;74264;48.988;12.040;2024-02-14T06:12:28;28.70;;;13.02;;
84144;SDS011;74264;48.988;12.040;2024-02-14T06:14:55;46.33;;;14.32;;
84144;SDS011;74264;48.988;12.040;2024-02-14T06:17:21;19.73;;;10.73;;
84144;SDS011;74264;48.988;12.040;2024-02-14T06:19:46;34.05;;;14.20;;
84144;SDS011;74264;48.988;12.040;2024-02-14T06:22:12;23.25;;;12.70;;
84144;SDS011;74264;48.988;12.040;2024-02-14T06:24:38;24.00;;;13.38;;
84144;SDS011;74264;48.988;12.040;2024-02-14T06:27:03;21.42;;;10.77;;
84144;SDS011;74264;48.988;12.040;2024-02-14T06:29:29;16.67;;;10.20;;
84144;SDS011;74264;48.988;12.040;2024-02-14T06:31:55;15.50;;;9.07;;
84144;SDS011;74264;48.988;12.040;2024-02-14T06:34:20;14.63;;;9.63;;
84144;SDS011;74264;48.988;12.040;2024-02-14T06:36:46;15.30;;;10.13;;
84144;SDS011;74264;48.988;12.040;2024-02-14T06:39:12;26.23;;;11.25;;
84144;SDS011;74264;48.988;12.040;2024-02-14T06:41:38;19.35;;;11.35;;
84144;SDS011;74264;48.988;12.040;2024-02-14T06:44:06;28.67;;;12.32;;
84144;SDS011;74264;48.988;12.040;2024-02-14T06:46:33;26.73;;;11.27;;
84144;SDS011;74264;48.988;12.040;2024-02-14T06:48:58;30.10;;;13.77;;
84144;SDS011;74264;48.988;12.040;2024-02-14T06:51:24;27.65;;;13.23;;
84144;SDS011;74264;48.988;12.040;2024-02-14T06:53:50;16.80;;;10.07;;
84144;SDS011;74264;48.988;12.040;2024-02-14T06:56:15;17.90;;;9.90;;
84144;SDS011;74264;48.988;12.040;2024-02-14T06:58:41;16.63;;;9.38;;
84144;SDS011;74264;48.988;12.040;2024-02-14T07:01:07;11.93;;;8.35;;
84144;SDS011;74264;48.988;12.040;2024-02-14T07:03:33;28.50;;;10.40;;
84144;SDS011;74264;48.988;12.040;2024-02-14T07:05:59;16.48;;;8.73;;
84144;SDS011;74264;48.988;12.040;2024-02-14T07:08:25;16.83;;;9.68;;
84144;SDS011;74264;48.988;12.040;2024-02-14T07:10:54;12.13;;;8.18;;
84144;SDS011;74264;48.988;12.040;2024-02-14T07:13:20;15.73;;;8.70;;
84144;SDS011;74264;48.988;12.040;2024-02-14T07:15:45;17.00;;;8.65;;
84144;SDS011;74264;48.988;12.040;2024-02-14T07:18:12;17.58;;;8.38;;
84144;SDS011;74264;48.988;12.040;2024-02-14T07:20:37;14.70;;;9.52;;
84144;SDS011;74264;48.988;12.040;2024-02-14T07:23:03;14.43;;;8.75;;
84144;SDS011;74264;48.988;12.040;2024-02-14T07:25:29;11.60;;;7.15;;
84144;SDS011;74264;48.988;12.040;2024-02-14T07:27:54;13.30;;;8.10;;
84144;SDS011;74264;48.988;12.040;2024-02-14T07:30:20;9.55;;;7.20;;
84144;SDS011;74264;48.988;12.040;2024-02-14T07:32:46;11.45;;;7.43;;
84144;SDS011;74264;48.988;12.040;2024-02-14T07:35:11;11.32;;;8.00;;
84144;SDS011;74264;48.988;12.040;2024-02-14T07:37:38;15.95;;;8.63;;
84144;SDS011;74264;48.988;12.040;2024-02-14T07:40:07;14.50;;;7.72;;
84144;SDS011;74264;48.988;12.040;2024-02-14T07:42:53;10.52;;;7.25;;
84144;SDS011;74264;48.988;12.040;2024-02-14T07:45:18;12.32;;;6.60;;
84144;SDS011;74264;48.988;12.040;2024-02-14T07:47:44;12.57;;;7.20;;
84144;SDS011;74264;48.988;12.040;2024-02-14T07:50:09;13.70;;;6.65;;
84144;SDS011;74264;48.988;12.040;2024-02-14T07:52:36;15.38;;;7.05;;
84144;SDS011;74264;48.988;12.040;2024-02-14T07:55:01;10.07;;;6.65;;
84144;SDS011;74264;48.988;12.040;2024-02-14T07:57:27;15.70;;;6.57;;
84144;SDS011;74264;48.988;12.040;2024-02-14T07:59:53;10.25;;;7.13;;
84144;SDS011;74264;48.988;12.040;2024-02-14T08:02:21;13.00;;;7.40;;
84144;SDS011;74264;48.988;12.040;2024-02-14T08:04:47;13.85;;;7.90;;
84144;SDS011;74264;48.988;12.040;2024-02-14T08:07:13;22.30;;;9.85;;
84144;SDS011;74264;48.988;12.040;2024-02-14T08:09:38;10.15;;;6.85;;
84144;SDS011;74264;48.988;12.040;2024-02-14T08:12:04;6.43;;;5.53;;
84144;SDS011;74264;48.988;12.040;2024-02-14T08:14:30;9.18;;;6.10;;
84144;SDS011;74264;48.988;12.040;2024-02-14T08:16:56;10.23;;;6.18;;
84144;SDS011;74264;48.988;12.040;2024-02-14T08:19:22;10.82;;;6.80;;
84144;SDS011;74264;48.988;12.040;2024-02-14T08:21:48;10.35;;;6.82;;
84144;SDS011;74264;48.988;12.040;2024-02-14T08:24:14;11.07;;;7.20;;
84144;SDS011;74264;48.988;12.040;2024-02-14T08:26:39;10.32;;;7.05;;
84144;SDS011;74264;48.988;12.040;2024-02-14T08:29:05;6.72;;;6.03;;
84144;SDS011;74264;48.988;12.040;2024-02-14T08:31:30;11.20;;;6.57;;
84144;SDS011;74264;48.988;12.040;2024-02-14T08:33:57;9.52;;;5.82;;
84144;SDS011;74264;48.988;12.040;2024-02-14T08:36:23;18.52;;;6.82;;
84144;SDS011;74264;48.988;12.040;2024-02-14T08:38:48;9.68;;;5.88;;
84144;SDS011;74264;48.988;12.040;2024-02-14T08:41:14;10.63;;;6.65;;
84144;SDS011;74264;48.988;12.040;2024-02-14T08:43:40;11.95;;;6.75;;
84144;SDS011;74264;48.988;12.040;2024-02-14T08:46:09;11.32;;;6.60;;
84144;SDS011;74264;48.988;12.040;2024-02-14T08:48:35;12.35;;;6.72;;
84144;SDS011;74264;48.988;12.040;2024-02-14T08:51:01;14.35;;;7.63;;
84144;SDS011;74264;48.988;12.040;2024-02-14T08:53:29;10.38;;;6.90;;
84144;SDS011;74264;48.988;12.040;2024-02-14T08:55:55;6.80;;;5.13;;
84144;SDS011;74264;48.988;12.040;2024-02-14T08:58:20;11.45;;;6.60;;
84144;SDS011;74264;48.988;12.040;2024-02-14T09:00:48;9.95;;;5.75;;
84144;SDS011;74264;48.988;12.040;2024-02-14T09:03:14;10.80;;;5.78;;
84144;SDS011;74264;48.988;12.040;2024-02-14T09:05:39;10.02;;;6.68;;
84144;SDS011;74264;48.988;12.040;2024-02-14T09:08:05;9.73;;;5.82;;
84144;SDS011;74264;48.988;12.040;2024-02-14T09:10:30;6.03;;;5.13;;
84144;SDS011;74264;48.988;12.040;2024-02-14T09:12:56;7.47;;;5.05;;
84144;SDS011;74264;48.988;12.040;2024-02-14T09:15:22;7.78;;;5.20;;
84144;SDS011;74264;48.988;12.040;2024-02-14T09:17:48;8.48;;;5.22;;
84144;SDS011;74264;48.988;12.040;2024-02-14T09:20:14;9.40;;;5.45;;
84144;SDS011;74264;48.988;12.040;2024-02-14T09:22:39;10.20;;;6.05;;
84144;SDS011;74264;48.988;12.040;2024-02-14T09:25:08;9.38;;;5.53;;
84144;SDS011;74264;48.988;12.040;2024-02-14T09:27:35;11.05;;;6.35;;
84144;SDS011;74264;48.988;12.040;2024-02-14T09:30:01;7.38;;;4.65;;
84144;SDS011;74264;48.988;12.040;2024-02-14T09:32:32;10.15;;;6.18;;
84144;SDS011;74264;48.988;12.040;2024-02-14T09:34:58;8.32;;;5.50;;
84144;SDS011;74264;48.988;12.040;2024-02-14T09:37:25;10.68;;;6.25;;
84144;SDS011;74264;48.988;12.040;2024-02-14T09:39:51;13.75;;;5.47;;
84144;SDS011;74264;48.988;12.040;2024-02-14T09:42:16;8.15;;;5.25;;
84144;SDS011;74264;48.988;12.040;2024-02-14T09:44:48;9.23;;;4.63;;
84144;SDS011;74264;48.988;12.040;2024-02-14T09:47:17;10.35;;;5.20;;
84144;SDS011;74264;48.988;12.040;2024-02-14T09:49:44;7.30;;;4.85;;
84144;SDS011;74264;48.988;12.040;2024-02-14T09:52:11;8.18;;;4.70;;
84144;SDS011;74264;48.988;12.040;2024-02-14T09:54:37;7.50;;;4.82;;
84144;SDS011;74264;48.988;12.040;2024-02-14T09:57:04;7.07;;;4.57;;
84144;SDS011;74264;48.988;12.040;2024-02-14T09:59:31;9.27;;;5.25;;
84144;SDS011;74264;48.988;12.040;2024-02-14T10:01:57;9.95;;;5.75;;
84144;SDS011;74264;48.988;12.040;2024-02-14T10:04:23;7.40;;;4.85;;
84144;SDS011;74264;48.988;12.040;2024-02-14T10:06:50;6.32;;;4.88;;
84144;SDS011;74264;48.988;12.040;2024-02-14T10:09:20;6.68;;;4.97;;
84144;SDS011;74264;48.988;12.040;2024-02-14T10:11:46;10.38;;;5.47;;
84144;SDS011;74264;48.988;12.040;2024-02-14T10:14:12;6.43;;;4.30;;
84144;SDS011;74264;48.988;12.040;2024-02-14T10:16:38;8.30;;;4.38;;
84144;SDS011;74264;48.988;12.040;2024-02-14T10:19:03;8.52;;;4.38;;
84144;SDS011;74264;48.988;12.040;2024-02-14T10:21:29;9.95;;;4.30;;
84144;SDS011;74264;48.988;12.040;2024-02-14T10:24:00;5.60;;;4.28;;
84144;SDS011;74264;48.988;12.040;2024-02-14T10:26:25;8.88;;;4.40;;
84144;SDS011;74264;48.988;12.040;2024-02-14T10:28:51;6.70;;;4.53;;
84144;SDS011;74264;48.988;12.040;2024-02-14T10:31:17;9.63;;;3.90;;
84144;SDS011;74264;48.988;12.040;2024-02-14T10:33:43;8.57;;;3.70;;
84144;SDS011;74264;48.988;12.040;2024-02-14T10:36:08;5.90;;;3.92;;
84144;SDS011;74264;48.988;12.040;2024-02-14T10:38:37;5.53;;;3.85;;
84144;SDS011;74264;48.988;12.040;2024-02-14T10:41:05;9.93;;;3.95;;
84144;SDS011;74264;48.988;12.040;2024-02-14T10:43:30;8.18;;;4.05;;
84144;SDS011;74264;48.988;12.040;2024-02-14T10:45:58;5.50;;;4.00;;
84144;SDS011;74264;48.988;12.040;2024-02-14T10:48:25;6.95;;;3.67;;
84144;SDS011;74264;48.988;12.040;2024-02-14T10:50:59;5.57;;;3.72;;
84144;SDS011;74264;48.988;12.040;2024-02-14T10:53:31;10.15;;;3.70;;
84144;SDS011;74264;48.988;12.040;2024-02-14T10:55:59;7.53;;;4.60;;
84144;SDS011;74264;48.988;12.040;2024-02-14T10:58:26;5.65;;;3.80;;
84144;SDS011;74264;48.988;12.040;2024-02-14T11:00:55;14.70;;;4.78;;
84144;SDS011;74264;48.988;12.040;2024-02-14T11:03:21;5.47;;;4.10;;
84144;SDS011;74264;48.988;12.040;2024-02-14T11:05:48;5.32;;;3.58;;
84144;SDS011;74264;48.988;12.040;2024-02-14T11:08:23;4.30;;;3.70;;
84144;SDS011;74264;48.988;12.040;2024-02-14T11:10:54;13.95;;;4.93;;
84144;SDS011;74264;48.988;12.040;2024-02-14T11:13:21;7.82;;;4.97;;
84144;SDS011;74264;48.988;12.040;2024-02-14T11:15:53;6.85;;;4.28;;
84144;SDS011;74264;48.988;12.040;2024-02-14T11:18:27;6.40;;;4.85;;
84144;SDS011;74264;48.988;12.040;2024-02-14T11:20:56;13.00;;;4.50;;
84144;SDS011;74264;48.988;12.040;2024-02-14T11:23:25;10.70;;;4.93;;
84144;SDS011;74264;48.988;12.040;2024-02-14T11:26:03;6.22;;;4.50;;
84144;SDS011;74264;48.988;12.040;2024-02-14T11:28:30;7.25;;;4.53;;
84144;SDS011;74264;48.988;12.040;2024-02-14T11:31:01;7.07;;;4.20;;
84144;SDS011;74264;48.988;12.040;2024-02-14T11:33:29;10.52;;;3.95;;
84144;SDS011;74264;48.988;12.040;2024-02-14T11:35:55;5.93;;;3.42;;
84144;SDS011;74264;48.988;12.040;2024-02-14T11:38:22;5.45;;;3.45;;
84144;SDS011;74264;48.988;12.040;2024-02-14T11:40:55;5.20;;;3.33;;
84144;SDS011;74264;48.988;12.040;2024-02-14T11:43:24;5.93;;;3.47;;
84144;SDS011;74264;48.988;12.040;2024-02-14T11:45:50;8.77;;;3.70;;
84144;SDS011;74264;48.988;12.040;2024-02-14T11:48:17;9.60;;;3.90;;
84144;SDS011;74264;48.988;12.040;2024-02-14T11:50:45;5.93;;;3.25;;
84144;SDS011;74264;48.988;12.040;2024-02-14T11:53:11;4.85;;;3.22;;
84144;SDS011;74264;48.988;12.040;2024-02-14T11:55:39;7.45;;;3.13;;
84144;SDS011;74264;48.988;12.040;2024-02-14T11:58:09;6.90;;;3.10;;
84144;SDS011;74264;48.988;12.040;2024-02-14T12:00:54;4.88;;;2.88;;
84144;SDS011;74264;48.988;12.040;2024-02-14T12:03:23;7.13;;;3.53;;
84144;SDS011;74264;48.988;12.040;2024-02-14T12:05:49;7.47;;;3.95;;
84144;SDS011;74264;48.988;12.040;2024-02-14T12:08:16;4.60;;;3.33;;
84144;SDS011;74264;48.988;12.040;2024-02-14T12:10:43;4.13;;;3.25;;
84144;SDS011;74264;48.988;12.040;2024-02-14T12:13:19;6.63;;;3.65;;
84144;SDS011;74264;48.988;12.040;2024-02-14T12:15:49;11.68;;;3.63;;
84144;SDS011;74264;48.988;12.040;2024-02-14T12:18:16;4.88;;;3.10;;
84144;SDS011;74264;48.988;12.040;2024-02-14T12:20:43;6.90;;;3.63;;
84144;SDS011;74264;48.988;12.040;2024-02-14T12:23:16;6.38;;;3.38;;
84144;SDS011;74264;48.988;12.040;2024-02-14T12:25:43;5.18;;;3.28;;
84144;SDS011;74264;48.988;12.040;2024-02-14T12:28:18;15.45;;;3.90;;
84144;SDS011;74264;48.988;12.040;2024-02-14T12:30:48;4.97;;;3.85;;
84144;SDS011;74264;48.988;12.040;2024-02-14T12:33:17;6.07;;;3.40;;
84144;SDS011;74264;48.988;12.040;2024-02-14T12:35:43;4.28;;;3.30;;
84144;SDS011;74264;48.988;12.040;2024-02-14T12:38:11;5.43;;;3.53;;
84144;SDS011;74264;48.988;12.040;2024-02-14T12:40:37;5.18;;;3.85;;
84144;SDS011;74264;48.988;12.040;2024-02-14T12:43:03;9.07;;;4.70;;
84144;SDS011;74264;48.988;12.040;2024-02-14T12:45:31;8.90;;;3.60;;
84144;SDS011;74264;48.988;12.040;2024-02-14T12:47:57;7.10;;;4.13;;
84144;SDS011;74264;48.988;12.040;2024-02-14T12:50:22;5.28;;;3.90;;
84144;SDS011;74264;48.988;12.040;2024-02-14T12:52:48;10.18;;;4.07;;
84144;SDS011;74264;48.988;12.040;2024-02-14T12:55:14;4.18;;;3.83;;
84144;SDS011;74264;48.988;12.040;2024-02-14T12:57:40;4.57;;;3.45;;
84144;SDS011;74264;48.988;12.040;2024-02-14T13:00:06;6.38;;;3.63;;
84144;SDS011;74264;48.988;12.040;2024-02-14T13:02:34;4.40;;;3.78;;
84144;SDS011;74264;48.988;12.040;2024-02-14T13:05:00;8.18;;;3.22;;
84144;SDS011;74264;48.988;12.040;2024-02-14T13:07:30;5.75;;;3.92;;
84144;SDS011;74264;48.988;12.040;2024-02-14T13:09:56;5.78;;;3.20;;
84144;SDS011;74264;48.988;12.040;2024-02-14T13:12:22;7.20;;;3.75;;
84144;SDS011;74264;48.988;12.040;2024-02-14T13:14:48;8.35;;;3.92;;
84144;SDS011;74264;48.988;12.040;2024-02-14T13:17:13;6.65;;;3.53;;
84144;SDS011;74264;48.988;12.040;2024-02-14T13:19:39;6.18;;;3.35;;
84144;SDS011;74264;48.988;12.040;2024-02-14T13:22:08;5.07;;;3.10;;
84144;SDS011;74264;48.988;12.040;2024-02-14T13:24:34;8.55;;;3.53;;
84144;SDS011;74264;48.988;12.040;2024-02-14T13:27:00;4.60;;;3.03;;
84144;SDS011;74264;48.988;12.040;2024-02-14T13:29:26;11.32;;;3.50;;
84144;SDS011;74264;48.988;12.040;2024-02-14T13:31:51;5.60;;;3.00;;
84144;SDS011;74264;48.988;12.040;2024-02-14T13:34:17;5.43;;;3.33;;
84144;SDS011;74264;48.988;12.040;2024-02-14T13:36:44;7.07;;;3.80;;
84144;SDS011;74264;48.988;12.040;2024-02-14T13:39:11;6.05;;;3.67;;
84144;SDS011;74264;48.988;12.040;2024-02-14T13:41:38;6.00;;;3.53;;
84144;SDS011;74264;48.988;12.040;2024-02-14T13:44:04;5.90;;;3.58;;
84144;SDS011;74264;48.988;12.040;2024-02-14T13:46:31;6.53;;;3.50;;
84144;SDS011;74264;48.988;12.040;2024-02-14T13:48:57;4.93;;;3.50;;
84144;SDS011;74264;48.988;12.040;2024-02-14T13:51:23;6.72;;;3.80;;
84144;SDS011;74264;48.988;12.040;2024-02-14T13:53:49;4.18;;;3.35;;
84144;SDS011;74264;48.988;12.040;2024-02-14T13:56:14;3.78;;;3.08;;
84144;SDS011;74264;48.988;12.040;2024-02-14T13:58:41;6.22;;;3.45;;
84144;SDS011;74264;48.988;12.040;2024-02-14T14:01:07;7.85;;;3.63;;
84144;SDS011;74264;48.988;12.040;2024-02-14T14:03:32;5.07;;;3.50;;
84144;SDS011;74264;48.988;12.040;2024-02-14T14:06:02;7.80;;;3.67;;
84144;SDS011;74264;48.988;12.040;2024-02-14T14:08:31;9.70;;;3.85;;
84144;SDS011;74264;48.988;12.040;2024-02-14T14:10:57;8.07;;;3.35;;
84144;SDS011;74264;48.988;12.040;2024-02-14T14:13:23;3.55;;;3.20;;
84144;SDS011;74264;48.988;12.040;2024-02-14T14:15:48;8.10;;;3.58;;
84144;SDS011;74264;48.988;12.040;2024-02-14T14:18:14;4.57;;;3.47;;
84144;SDS011;74264;48.988;12.040;2024-02-14T14:20:39;5.75;;;3.67;;
84144;SDS011;74264;48.988;12.040;2024-02-14T14:23:05;4.95;;;3.80;;